Time;durP1;ratioP1;P1;durP2;ratioP2;P2;SDS_P1;SDS_P2;PMS_P1;PMS_P2;Temp;Humidity;BMP_temperature;BMP_pressure;BME280_temperature;BME280_humidity;BME280_pressure;Samples;Min_cycle;Max_cycle;Signal;HPM_P1;HPM_P2
2023/12/04 00:02:17;;;;;;;20.58;11.93;;;;;;;-142.57;100.00;55397.97;4958396;28;20083;-79
2023/12/04 00:04:42;;;;;;;22.52;11.23;;;;;;;-142.57;100.00;55383.81;4964804;28;20078;-77
2023/12/04 00:07:08;;;;;;;18.80;11.32;;;;;;;-142.57;100.00;55389.88;4978189;28;20107;-78
2023/12/04 00:09:33;;;;;;;22.17;10.90;;;;;;;-142.57;100.00;55393.91;4962226;28;20035;-79
2023/12/04 00:11:59;;;;;;;22.50;11.73;;;;;;;-142.57;100.00;55402.00;4946009;28;20027;-80
2023/12/04 00:14:24;;;;;;;23.60;11.02;;;;;;;-142.57;100.00;55436.34;4940922;28;20070;-78
2023/12/04 00:16:50;;;;;;;25.02;11.93;;;;;;;-142.57;100.00;55399.97;4946635;28;20581;-80
2023/12/04 00:19:18;;;;;;;22.27;10.80;;;;;;;-142.57;100.00;55422.22;4943534;28;20097;-80
2023/12/04 00:21:44;;;;;;;20.38;11.15;;;;;;;-142.57;100.00;55391.91;4918582;29;20378;-80
2023/12/04 00:24:09;;;;;;;24.77;11.27;;;;;;;-142.57;100.00;55369.69;4944244;28;20042;-76
2023/12/04 00:26:36;;;;;;;23.77;11.65;;;;;;;-142.57;100.00;55414.13;4944413;28;20050;-81
2023/12/04 00:29:02;;;;;;;19.42;10.68;;;;;;;-142.57;100.00;55438.38;4944101;28;20078;-77
2023/12/04 00:31:28;;;;;;;21.85;11.35;;;;;;;-142.57;100.00;55404.03;4926201;28;20576;-80
2023/12/04 00:33:53;;;;;;;22.58;11.00;;;;;;;-142.57;100.00;55418.16;4943277;28;20043;-76
2023/12/04 00:36:19;;;;;;;17.02;10.43;;;;;;;-142.57;100.00;55410.09;4925971;28;20047;-77
2023/12/04 00:38:45;;;;;;;19.45;11.05;;;;;;;-142.57;100.00;55422.22;4926475;29;20450;-77
2023/12/04 00:41:11;;;;;;;18.13;10.70;;;;;;;-142.57;100.00;55450.50;4943907;28;20027;-78
2023/12/04 00:43:36;;;;;;;19.10;10.55;;;;;;;-142.57;100.00;55466.66;4943747;28;20082;-77
2023/12/04 00:46:02;;;;;;;20.60;10.70;;;;;;;-142.57;100.00;55466.66;4943305;28;20031;-78
2023/12/04 00:48:28;;;;;;;18.70;10.18;;;;;;;-142.57;100.00;55436.34;4926462;28;20039;-78
2023/12/04 00:50:54;;;;;;;21.63;10.60;;;;;;;-142.57;100.00;55418.16;4943230;28;20070;-76
2023/12/04 00:53:20;;;;;;;16.95;9.77;;;;;;;-142.57;100.00;55438.38;4944194;28;20391;-76
2023/12/04 00:55:46;;;;;;;18.08;10.50;;;;;;;-142.57;100.00;55444.44;4944405;28;20047;-76
2023/12/04 00:58:12;;;;;;;17.38;10.35;;;;;;;-142.57;100.00;55422.22;4925952;28;20027;-78
2023/12/04 01:00:38;;;;;;;23.48;11.15;;;;;;;-142.57;100.00;55389.88;4942859;28;20064;-80
2023/12/04 01:03:03;;;;;;;21.52;11.30;;;;;;;-142.57;100.00;55424.22;4915988;28;20102;-79
2023/12/04 01:05:29;;;;;;;18.90;10.57;;;;;;;-142.57;100.00;55408.06;4934466;28;20138;-78
2023/12/04 01:07:54;;;;;;;20.63;11.15;;;;;;;-142.57;100.00;55422.22;4947720;28;20058;-78
2023/12/04 01:10:20;;;;;;;18.75;11.52;;;;;;;-142.57;100.00;55418.16;4951487;28;20086;-80
2023/12/04 01:12:46;;;;;;;20.02;11.25;;;;;;;-142.57;100.00;55353.50;4946072;28;20047;-79
2023/12/04 01:15:14;;;;;;;23.42;10.93;;;;;;;-142.57;100.00;55393.91;4942241;28;20118;-76
2023/12/04 01:17:40;;;;;;;20.70;11.13;;;;;;;-142.57;100.00;55373.72;4943548;28;20038;-78
2023/12/04 01:20:06;;;;;;;21.25;11.90;;;;;;;-142.57;100.00;55351.50;4927805;28;20027;-77
2023/12/04 01:22:35;;;;;;;21.00;11.93;;;;;;;-142.57;100.00;55337.34;4935829;28;20059;-79
2023/12/04 01:25:03;;;;;;;21.67;12.15;;;;;;;-142.57;100.00;55341.38;4953239;28;20035;-79
2023/12/04 01:27:28;;;;;;;21.00;11.73;;;;;;;-142.57;100.00;55325.22;4943001;28;20090;-78
2023/12/04 01:29:53;;;;;;;20.50;11.68;;;;;;;-142.57;100.00;55339.38;4942360;28;20027;-78
2023/12/04 01:32:19;;;;;;;22.45;11.68;;;;;;;-142.57;100.00;55375.75;4943213;28;20031;-78
2023/12/04 01:34:45;;;;;;;19.00;11.32;;;;;;;-142.57;100.00;55371.69;4943118;28;20034;-79
2023/12/04 01:37:11;;;;;;;19.80;11.98;;;;;;;-142.57;100.00;55359.56;4951501;28;20434;-77
2023/12/04 01:39:37;;;;;;;23.00;11.85;;;;;;;-142.57;100.00;55381.81;4954032;28;20753;-79
2023/12/04 01:42:02;;;;;;;21.77;11.75;;;;;;;-142.57;100.00;55333.31;4946365;28;20031;-80
2023/12/04 01:44:28;;;;;;;24.15;12.23;;;;;;;-142.57;100.00;55317.16;4943244;28;20079;-80
2023/12/04 01:46:54;;;;;;;27.25;13.77;;;;;;;-142.57;100.00;55309.06;4943082;28;20039;-79
2023/12/04 01:49:20;;;;;;;22.48;12.43;;;;;;;-142.57;100.00;55339.38;4942975;28;20035;-78
2023/12/04 01:51:46;;;;;;;20.85;12.10;;;;;;;-142.57;100.00;55325.22;4953016;28;20046;-78
2023/12/04 01:54:12;;;;;;;22.05;12.77;;;;;;;-142.57;100.00;55337.34;4955695;28;20066;-77
2023/12/04 01:56:37;;;;;;;22.65;12.18;;;;;;;-142.57;100.00;55292.91;4943002;28;20027;-79
2023/12/04 01:59:03;;;;;;;24.38;12.98;;;;;;;-142.57;100.00;55244.41;4927439;29;20031;-76
2023/12/04 02:01:30;;;;;;;23.98;13.00;;;;;;;-142.57;100.00;55250.47;4926901;28;20545;-77
2023/12/04 02:03:56;;;;;;;21.20;12.48;;;;;;;-142.57;100.00;55272.69;4944888;28;20043;-76
2023/12/04 02:06:22;;;;;;;25.00;14.20;;;;;;;-142.57;100.00;55224.22;4946600;28;20038;-77
2023/12/04 02:08:48;;;;;;;25.40;13.73;;;;;;;-142.57;100.00;55270.69;4954078;28;20158;-78
2023/12/04 02:11:13;;;;;;;22.35;13.27;;;;;;;-142.57;100.00;55282.81;4952863;28;20481;-76
2023/12/04 02:13:42;;;;;;;27.50;13.25;;;;;;;-142.57;100.00;55303.00;4948509;28;20043;-76
2023/12/04 02:16:11;;;;;;;26.15;13.48;;;;;;;-142.57;100.00;55300.97;4943067;28;20478;-76
2023/12/04 02:18:37;;;;;;;25.20;12.52;;;;;;;-142.57;100.00;55313.09;4926294;28;20429;-77
2023/12/04 02:21:03;;;;;;;21.38;12.77;;;;;;;-142.57;100.00;55309.06;4944139;28;20158;-78
2023/12/04 02:23:32;;;;;;;23.10;12.95;;;;;;;-142.57;100.00;55321.19;4950940;28;20126;-81
2023/12/04 02:26:08;;;;;;;23.13;13.23;;;;;;;-142.57;100.00;55319.16;4955885;28;20043;-79
2023/12/04 02:28:36;;;;;;;24.50;13.38;;;;;;;-142.57;100.00;55323.22;4963101;28;20048;-78
2023/12/04 02:31:04;;;;;;;23.13;13.27;;;;;;;-142.57;100.00;55300.97;4965125;28;20032;-78
2023/12/04 02:33:31;;;;;;;25.10;12.18;;;;;;;-142.57;100.00;55349.47;4944587;28;20035;-77
2023/12/04 02:35:59;;;;;;;26.65;13.95;;;;;;;-142.57;100.00;55290.88;4942595;28;20040;-80
2023/12/04 02:38:25;;;;;;;26.92;13.27;;;;;;;-142.57;100.00;55329.28;4948950;28;20047;-80
2023/12/04 02:40:50;;;;;;;28.88;13.48;;;;;;;-142.57;100.00;55307.03;4955407;28;20097;-83
2023/12/04 02:43:16;;;;;;;25.58;13.90;;;;;;;-142.57;100.00;55321.19;4949523;28;20426;-82
2023/12/04 02:45:41;;;;;;;34.33;14.75;;;;;;;-142.57;100.00;55321.19;4946040;28;20469;-79
2023/12/04 02:48:07;;;;;;;26.50;13.63;;;;;;;-142.57;100.00;55325.22;4945768;28;20114;-78
2023/12/04 02:50:33;;;;;;;27.20;13.75;;;;;;;-142.57;100.00;55345.44;4935593;28;20046;-79
2023/12/04 02:52:58;;;;;;;29.35;14.52;;;;;;;-142.57;100.00;55284.81;4925466;29;20376;-81
2023/12/04 02:55:23;;;;;;;23.95;13.75;;;;;;;-142.57;100.00;55290.88;4946391;28;20072;-80
2023/12/04 02:57:49;;;;;;;24.65;13.48;;;;;;;-142.57;100.00;55284.81;4957440;28;20039;-77
2023/12/04 03:00:15;;;;;;;26.17;13.93;;;;;;;-142.57;100.00;55288.88;4946917;28;20126;-80
2023/12/04 03:02:41;;;;;;;30.92;14.30;;;;;;;-142.57;100.00;55292.91;4947054;28;20442;-77
2023/12/04 03:05:06;;;;;;;22.20;12.80;;;;;;;-142.57;100.00;55307.03;4945567;28;20097;-77
2023/12/04 03:07:32;;;;;;;23.15;13.30;;;;;;;-142.57;100.00;55317.16;4938918;28;20066;-79
2023/12/04 03:09:57;;;;;;;22.25;13.32;;;;;;;-142.57;100.00;55278.75;4957328;28;20078;-79
2023/12/04 03:12:23;;;;;;;26.23;13.13;;;;;;;-142.57;100.00;55309.06;4957143;28;20188;-78
2023/12/04 03:14:48;;;;;;;25.92;13.48;;;;;;;-142.57;100.00;55248.47;4957293;28;20062;-76
2023/12/04 03:17:14;;;;;;;27.98;13.82;;;;;;;-142.57;100.00;55268.66;4954648;28;20039;-79
2023/12/04 03:19:40;;;;;;;23.95;13.80;;;;;;;-142.57;100.00;55226.22;4945823;28;20031;-79
2023/12/04 03:22:05;;;;;;;33.47;16.42;;;;;;;-142.57;100.00;55216.13;4945490;28;20512;-78
2023/12/04 03:24:31;;;;;;;28.73;14.57;;;;;;;-142.57;100.00;55252.50;4936638;28;20074;-78
2023/12/04 03:26:56;;;;;;;26.05;13.60;;;;;;;-142.57;100.00;55204.00;4949739;28;20455;-79
2023/12/04 03:29:22;;;;;;;25.83;13.60;;;;;;;-142.57;100.00;55234.31;4961908;28;20043;-78
2023/12/04 03:31:47;;;;;;;27.67;13.13;;;;;;;-142.57;100.00;55258.56;4945555;28;20046;-78
2023/12/04 03:34:13;;;;;;;25.00;13.70;;;;;;;-142.57;100.00;55242.41;4955457;28;20446;-77
2023/12/04 03:36:38;;;;;;;25.52;14.00;;;;;;;-142.57;100.00;55212.09;4953704;28;20035;-81
2023/12/04 03:39:04;;;;;;;24.92;13.05;;;;;;;-142.57;100.00;55224.22;4955859;28;20027;-81
2023/12/04 03:41:29;;;;;;;26.33;13.55;;;;;;;-142.57;100.00;55244.41;4942836;28;20086;-79
2023/12/04 03:43:55;;;;;;;25.92;13.20;;;;;;;-142.57;100.00;55224.22;4945166;28;20039;-77
2023/12/04 03:46:20;;;;;;;24.10;13.02;;;;;;;-142.57;100.00;55232.28;4945097;28;20043;-80
2023/12/04 03:48:49;;;;;;;25.85;13.77;;;;;;;-142.57;100.00;55218.16;4945648;28;20034;-77
2023/12/04 03:51:14;;;;;;;25.73;13.05;;;;;;;-142.57;100.00;55226.22;4920500;29;20039;-78
2023/12/04 03:53:40;;;;;;;24.40;13.32;;;;;;;-142.57;100.00;55234.31;4954788;28;20062;-78
2023/12/04 03:56:06;;;;;;;23.30;13.70;;;;;;;-142.57;100.00;55248.47;4955995;28;20101;-82
2023/12/04 03:58:32;;;;;;;26.73;13.60;;;;;;;-142.57;100.00;55220.16;4948650;28;20066;-79
2023/12/04 04:00:57;;;;;;;24.20;13.68;;;;;;;-142.57;100.00;55228.25;4944560;28;20032;-77
2023/12/04 04:03:23;;;;;;;24.02;13.73;;;;;;;-142.57;100.00;55226.22;4945636;28;20057;-78
2023/12/04 04:05:50;;;;;;;25.25;14.70;;;;;;;-142.57;100.00;55240.38;4950813;29;20039;-78
2023/12/04 04:08:15;;;;;;;28.73;14.50;;;;;;;-142.57;100.00;55216.13;4959160;28;20133;-79
2023/12/04 04:10:41;;;;;;;33.42;15.55;;;;;;;-142.57;100.00;55212.09;4961240;28;20130;-78
2023/12/04 04:13:06;;;;;;;33.70;15.88;;;;;;;-142.57;100.00;55230.28;4960796;28;20340;-78
2023/12/04 04:15:33;;;;;;;28.42;15.55;;;;;;;-142.57;100.00;55222.19;4964028;28;20043;-79
2023/12/04 04:17:58;;;;;;;28.08;14.80;;;;;;;-142.57;100.00;55248.47;4960476;28;20410;-78
2023/12/04 04:20:24;;;;;;;33.05;16.02;;;;;;;-142.57;100.00;55232.28;4930868;29;20043;-77
2023/12/04 04:22:49;;;;;;;34.88;17.10;;;;;;;-142.57;100.00;55224.22;4950153;29;20046;-78
2023/12/04 04:25:15;;;;;;;29.45;16.90;;;;;;;-142.57;100.00;55260.56;4974597;28;20033;-77
2023/12/04 04:27:41;;;;;;;36.58;16.70;;;;;;;-142.57;100.00;55252.50;4970002;28;20031;-79
2023/12/04 04:30:10;;;;;;;35.40;18.05;;;;;;;-142.57;100.00;55248.47;4947335;28;20030;-77
2023/12/04 04:32:36;;;;;;;36.30;17.52;;;;;;;-142.57;100.00;55240.38;4965631;29;20039;-76
2023/12/04 04:35:02;;;;;;;31.40;18.48;;;;;;;-142.57;100.00;55228.25;4948932;28;20038;-76
2023/12/04 04:37:28;;;;;;;38.03;19.15;;;;;;;-142.57;100.00;55256.53;4974639;29;20011;-76
2023/12/04 04:39:53;;;;;;;28.88;17.20;;;;;;;-142.57;100.00;55250.47;4975418;28;20066;-76
2023/12/04 04:42:19;;;;;;;33.03;17.25;;;;;;;-142.57;100.00;55234.31;4977055;28;20038;-79
2023/12/04 04:44:44;;;;;;;30.92;17.60;;;;;;;-142.57;100.00;55286.84;4960191;29;20087;-76
2023/12/04 04:47:10;;;;;;;29.88;16.60;;;;;;;-142.57;100.00;55252.50;4965865;28;20094;-77
2023/12/04 04:49:35;;;;;;;30.10;17.52;;;;;;;-142.57;100.00;55248.47;4968155;28;20055;-79
2023/12/04 04:52:01;;;;;;;29.17;16.25;;;;;;;-142.57;100.00;55236.34;4961286;28;20097;-76
2023/12/04 04:54:26;;;;;;;34.00;17.05;;;;;;;-142.57;100.00;55296.94;4962575;28;20043;-79
2023/12/04 04:56:55;;;;;;;30.83;16.25;;;;;;;-142.57;100.00;55292.91;4968717;28;20087;-76
2023/12/04 04:59:21;;;;;;;26.92;16.73;;;;;;;-142.57;100.00;55298.97;4947311;29;20470;-78
2023/12/04 05:01:46;;;;;;;32.42;16.75;;;;;;;-142.57;100.00;55292.91;4960510;28;20031;-77
2023/12/04 05:04:13;;;;;;;32.58;17.90;;;;;;;-142.57;100.00;55361.59;4949786;28;20102;-78
2023/12/04 05:06:39;;;;;;;32.92;16.40;;;;;;;-142.57;100.00;55264.63;4955644;28;20035;-77
2023/12/04 05:09:05;;;;;;;27.95;16.02;;;;;;;-142.57;100.00;55300.97;4955411;28;20031;-79
2023/12/04 05:11:30;;;;;;;29.42;15.77;;;;;;;-142.57;100.00;55276.75;4950141;28;20455;-79
2023/12/04 05:13:56;;;;;;;30.48;16.67;;;;;;;-142.57;100.00;55292.91;4945511;28;20035;-79
2023/12/04 05:16:21;;;;;;;27.40;15.63;;;;;;;-142.57;100.00;55262.59;4922013;29;20134;-79
2023/12/04 05:18:47;;;;;;;32.03;14.48;;;;;;;-142.57;100.00;55307.03;4926075;28;20043;-81
2023/12/04 05:21:12;;;;;;;25.55;14.70;;;;;;;-142.57;100.00;55272.69;4949886;28;20129;-78
2023/12/04 05:23:38;;;;;;;26.30;13.60;;;;;;;-142.57;100.00;55296.94;4955462;28;20031;-79
2023/12/04 05:26:06;;;;;;;25.77;13.35;;;;;;;-142.57;100.00;55307.03;4952370;28;20062;-81
2023/12/04 05:28:31;;;;;;;27.00;13.75;;;;;;;-142.57;100.00;55264.63;4918403;28;20050;-77
2023/12/04 05:30:57;;;;;;;34.85;14.20;;;;;;;-142.57;100.00;55282.81;4925104;28;20058;-78
2023/12/04 05:33:22;;;;;;;25.15;13.35;;;;;;;-142.57;100.00;55272.69;4943218;28;20082;-79
2023/12/04 05:35:48;;;;;;;25.67;13.85;;;;;;;-142.57;100.00;55288.88;4933862;28;20407;-79
2023/12/04 05:38:14;;;;;;;26.15;13.68;;;;;;;-142.57;100.00;55288.88;4937423;28;20042;-79
2023/12/04 05:40:39;;;;;;;22.75;14.50;;;;;;;-142.57;100.00;55256.53;4930709;28;20050;-83
2023/12/04 05:43:08;;;;;;;32.75;15.50;;;;;;;-142.57;100.00;55280.78;4944464;28;20122;-77
2023/12/04 05:45:33;;;;;;;28.63;14.48;;;;;;;-142.57;100.00;55290.88;4942930;28;20038;-81
2023/12/04 05:47:59;;;;;;;32.28;14.98;;;;;;;-142.57;100.00;55325.22;4934882;28;20031;-80
2023/12/04 05:50:24;;;;;;;28.77;14.77;;;;;;;-142.57;100.00;55292.91;4943143;28;20032;-80
2023/12/04 05:52:50;;;;;;;35.72;15.35;;;;;;;-142.57;100.00;55272.69;4943261;28;20039;-79
2023/12/04 05:55:16;;;;;;;26.88;14.18;;;;;;;-142.57;100.00;55294.94;4943756;28;20043;-81
2023/12/04 05:57:41;;;;;;;29.17;15.23;;;;;;;-142.57;100.00;55288.88;4943681;28;20039;-78
2023/12/04 06:00:13;;;;;;;25.77;15.23;;;;;;;-142.57;100.00;55303.00;4925487;28;20043;-78
2023/12/04 06:02:39;;;;;;;26.13;14.00;;;;;;;-142.57;100.00;55256.53;4943468;28;20467;-80
2023/12/04 06:05:09;;;;;;;29.85;15.23;;;;;;;-142.57;100.00;55250.47;4943711;28;20035;-82
2023/12/04 06:07:35;;;;;;;32.28;14.90;;;;;;;-142.57;100.00;55284.81;4948523;28;20039;-81
2023/12/04 06:10:01;;;;;;;40.33;15.38;;;;;;;-142.57;100.00;55288.88;4944184;28;20178;-78
2023/12/04 06:12:27;;;;;;;27.83;14.85;;;;;;;-142.57;100.00;55300.97;4954359;28;20114;-77
2023/12/04 06:14:52;;;;;;;28.40;14.90;;;;;;;-142.57;100.00;55288.88;4949834;28;20113;-78
2023/12/04 06:17:18;;;;;;;25.80;14.77;;;;;;;-142.57;100.00;55280.78;4950160;28;20048;-80
2023/12/04 06:19:43;;;;;;;26.63;14.00;;;;;;;-142.57;100.00;55268.66;4955571;28;20546;-79
2023/12/04 06:22:09;;;;;;;24.20;13.30;;;;;;;-142.57;100.00;55276.75;4959128;28;20070;-79
2023/12/04 06:24:35;;;;;;;26.98;13.23;;;;;;;-142.57;100.00;55294.94;4958209;28;20383;-79
2023/12/04 06:27:01;;;;;;;28.77;14.38;;;;;;;-142.57;100.00;55280.78;4958402;28;20039;-79
2023/12/04 06:29:27;;;;;;;43.70;14.88;;;;;;;-142.57;100.00;55300.97;4956961;28;20125;-78
2023/12/04 06:31:53;;;;;;;34.38;14.57;;;;;;;-142.57;100.00;55329.28;4953554;28;20091;-80
2023/12/04 06:34:19;;;;;;;30.35;16.17;;;;;;;-142.57;100.00;55296.94;4958236;28;20037;-81
2023/12/04 06:36:45;;;;;;;28.63;15.13;;;;;;;-142.57;100.00;55309.06;4959021;28;20035;-81
2023/12/04 06:39:12;;;;;;;30.33;15.35;;;;;;;-142.57;100.00;55286.84;4959835;28;20031;-80
2023/12/04 06:41:42;;;;;;;31.42;15.90;;;;;;;-142.57;100.00;55325.22;4961437;28;20043;-78
2023/12/04 06:44:08;;;;;;;26.25;14.02;;;;;;;-142.57;100.00;55325.22;4941240;29;20042;-82
2023/12/04 06:46:37;;;;;;;27.63;14.70;;;;;;;-142.57;100.00;55317.16;4958441;28;20066;-79
2023/12/04 06:49:06;;;;;;;30.38;16.08;;;;;;;-142.57;100.00;55325.22;4959128;28;20043;-79
2023/12/04 06:51:32;;;;;;;30.02;15.40;;;;;;;-142.57;100.00;55325.22;4942396;29;20061;-78
2023/12/04 06:53:58;;;;;;;34.45;15.73;;;;;;;-142.57;100.00;55329.28;4958698;28;20046;-78
2023/12/04 06:56:24;;;;;;;31.95;16.13;;;;;;;-142.57;100.00;55309.06;4940635;28;20117;-79
2023/12/04 06:58:49;;;;;;;29.77;15.60;;;;;;;-142.57;100.00;55329.28;4958895;28;20035;-79
2023/12/04 07:01:15;;;;;;;35.38;16.08;;;;;;;-142.57;100.00;55321.19;4941044;28;20071;-77
2023/12/04 07:03:40;;;;;;;27.20;17.10;;;;;;;-142.57;100.00;55353.50;4958249;28;20039;-79
2023/12/04 07:06:06;;;;;;;28.88;16.10;;;;;;;-142.57;100.00;55365.63;4960660;28;20047;-78
2023/12/04 07:08:32;;;;;;;30.30;15.85;;;;;;;-142.57;100.00;55389.88;4955941;28;20042;-78
2023/12/04 07:10:57;;;;;;;27.58;14.80;;;;;;;-142.57;100.00;55329.28;4962410;28;20043;-77
2023/12/04 07:13:23;;;;;;;27.90;14.98;;;;;;;-142.57;100.00;55311.09;4965690;28;20078;-78
2023/12/04 07:15:49;;;;;;;30.48;15.18;;;;;;;-142.57;100.00;55341.38;4957373;28;20058;-80
2023/12/04 07:18:15;;;;;;;26.17;14.98;;;;;;;-142.57;100.00;55339.38;4956783;28;20039;-80
2023/12/04 07:20:40;;;;;;;27.55;13.73;;;;;;;-142.57;100.00;55349.47;4957632;28;20398;-80
2023/12/04 07:23:06;;;;;;;39.25;14.40;;;;;;;-142.57;100.00;55345.44;4939713;28;20129;-82
2023/12/04 07:25:31;;;;;;;26.75;14.40;;;;;;;-142.57;100.00;55329.28;4956982;28;20045;-81
2023/12/04 07:27:57;;;;;;;28.65;14.68;;;;;;;-142.57;100.00;55305.03;4938764;28;20522;-80
2023/12/04 07:30:24;;;;;;;28.95;15.38;;;;;;;-142.57;100.00;55333.31;4957327;28;20036;-79
2023/12/04 07:32:50;;;;;;;28.15;15.40;;;;;;;-142.57;100.00;55337.34;4956591;28;20061;-79
2023/12/04 07:35:17;;;;;;;26.13;15.05;;;;;;;-142.57;100.00;55343.41;4956307;28;20035;-80
2023/12/04 07:37:43;;;;;;;30.90;16.83;;;;;;;-142.57;100.00;55353.50;4939269;28;20039;-81
2023/12/04 07:40:10;;;;;;;31.88;17.50;;;;;;;-142.57;100.00;55341.38;4956801;28;20079;-83
2023/12/04 07:42:36;;;;;;;27.55;16.23;;;;;;;-142.57;100.00;55325.22;4957097;28;20050;-82
2023/12/04 07:45:02;;;;;;;31.10;17.52;;;;;;;-142.57;100.00;55349.47;4957888;28;20114;-84
2023/12/04 07:47:28;;;;;;;29.15;16.58;;;;;;;-142.57;100.00;55365.63;4957427;28;20458;-82
2023/12/04 07:49:53;;;;;;;33.65;16.73;;;;;;;-142.57;100.00;55353.50;4957017;28;20122;-82
2023/12/04 07:52:19;;;;;;;31.58;17.63;;;;;;;-142.57;100.00;55385.84;4940683;29;20456;-79
2023/12/04 07:54:44;;;;;;;29.83;16.40;;;;;;;-142.57;100.00;55389.88;4960893;28;20063;-79
2023/12/04 07:57:10;;;;;;;33.53;17.35;;;;;;;-142.57;100.00;55325.22;4969315;28;20062;-83
2023/12/04 07:59:35;;;;;;;33.10;17.60;;;;;;;-142.57;100.00;55355.53;4939168;28;20039;-81
2023/12/04 08:02:01;;;;;;;34.15;18.15;;;;;;;-142.57;100.00;55337.34;4960129;28;20027;-82
2023/12/04 08:04:27;;;;;;;34.40;18.40;;;;;;;-142.57;100.00;55331.28;4943831;29;20039;-83
2023/12/04 08:06:53;;;;;;;36.35;19.52;;;;;;;-142.57;100.00;55349.47;4941408;29;20134;-83
2023/12/04 08:09:18;;;;;;;31.63;17.90;;;;;;;-142.57;100.00;55355.53;4939831;29;20444;-82
2023/12/04 08:11:44;;;;;;;34.80;18.58;;;;;;;-142.57;100.00;55345.44;4933987;29;20036;-81
2023/12/04 08:14:09;;;;;;;32.25;19.13;;;;;;;-142.57;100.00;55385.84;4925270;29;20070;-80
2023/12/04 08:16:35;;;;;;;35.83;19.27;;;;;;;-142.57;100.00;55385.84;4946450;29;20055;-85
2023/12/04 08:19:01;;;;;;;36.13;17.55;;;;;;;-142.57;100.00;55414.13;4949892;28;20130;-80
2023/12/04 08:21:27;;;;;;;34.42;18.83;;;;;;;-142.57;100.00;55377.75;4968447;28;20046;-82
2023/12/04 08:23:53;;;;;;;34.00;18.55;;;;;;;-142.57;100.00;55383.81;4964271;28;20035;-79
2023/12/04 08:26:24;;;;;;;38.90;20.15;;;;;;;-142.57;100.00;55347.44;4970959;28;20043;-79
2023/12/04 08:28:52;;;;;;;39.25;20.15;;;;;;;-142.57;100.00;55353.50;4969373;28;20043;-76
2023/12/04 08:31:18;;;;;;;50.22;22.25;;;;;;;-142.57;100.00;55379.78;4968139;28;20062;-80
2023/12/04 08:33:43;;;;;;;45.22;22.98;;;;;;;-142.57;100.00;55367.66;4955397;28;20471;-79
2023/12/04 08:36:12;;;;;;;38.08;20.40;;;;;;;-142.57;100.00;55357.56;4962088;28;20079;-82
2023/12/04 08:38:40;;;;;;;41.50;22.23;;;;;;;-142.57;100.00;55369.69;4958798;28;20028;-85
2023/12/04 08:41:06;;;;;;;45.53;23.48;;;;;;;-142.57;100.00;55343.41;4956456;28;20545;-88
2023/12/04 08:43:31;;;;;;;52.33;22.45;;;;;;;-142.57;100.00;55353.50;4949184;28;20039;-88
2023/12/04 08:45:57;;;;;;;42.90;22.33;;;;;;;-142.57;100.00;55349.47;4941641;28;20038;-85
2023/12/04 08:48:22;;;;;;;52.08;23.05;;;;;;;-142.57;100.00;55373.72;4945879;28;20050;-86
2023/12/04 08:50:48;;;;;;;41.20;22.70;;;;;;;-142.57;100.00;55371.69;4955839;28;20047;-86
2023/12/04 08:53:14;;;;;;;46.25;23.17;;;;;;;-142.57;100.00;55383.81;4960884;28;20035;-85
2023/12/04 08:55:39;;;;;;;40.35;20.67;;;;;;;-142.57;100.00;55385.84;4953811;28;20098;-87
2023/12/04 08:58:05;;;;;;;36.78;21.27;;;;;;;-142.57;100.00;55385.84;4969186;28;20038;-86
2023/12/04 09:00:32;;;;;;;41.35;20.77;;;;;;;-142.57;100.00;55397.97;4955509;28;20042;-86
2023/12/04 09:02:58;;;;;;;45.53;20.98;;;;;;;-142.57;100.00;55402.00;4967736;28;20066;-86
2023/12/04 09:05:23;;;;;;;43.13;21.85;;;;;;;-142.57;100.00;55426.25;4963598;28;20026;-88
2023/12/04 09:07:49;;;;;;;46.22;23.48;;;;;;;-142.57;100.00;55428.25;4967017;28;20042;-87
2023/12/04 09:10:17;;;;;;;41.45;21.05;;;;;;;-142.57;100.00;55402.00;4967878;28;20043;-87
2023/12/04 09:12:43;;;;;;;37.72;19.77;;;;;;;-142.57;100.00;55404.03;4958749;28;20057;-88
2023/12/04 09:15:08;;;;;;;35.50;20.80;;;;;;;-142.57;100.00;55410.09;4964541;28;20046;-87
2023/12/04 09:17:34;;;;;;;35.25;19.20;;;;;;;-142.57;100.00;55430.28;4959766;28;20094;-85
2023/12/04 09:19:59;;;;;;;35.65;19.25;;;;;;;-142.57;100.00;55430.28;4971086;28;20034;-87
2023/12/04 09:22:25;;;;;;;40.50;19.92;;;;;;;-142.57;100.00;55436.34;4964760;28;20035;-86
2023/12/04 09:24:51;;;;;;;34.42;20.13;;;;;;;-142.57;100.00;55420.19;4951926;28;20038;-85
2023/12/04 09:27:16;;;;;;;40.55;20.17;;;;;;;-142.57;100.00;55377.75;4948228;28;20035;-86
2023/12/04 09:29:42;;;;;;;39.15;19.75;;;;;;;-142.57;100.00;55406.03;4964069;28;20501;-86
2023/12/04 09:32:08;;;;;;;39.70;20.20;;;;;;;-142.57;100.00;55438.38;4959112;28;20027;-83
2023/12/04 09:34:33;;;;;;;39.50;20.33;;;;;;;-142.57;100.00;55402.00;4958573;28;20055;-84
2023/12/04 09:36:59;;;;;;;35.85;20.08;;;;;;;-142.57;100.00;55385.84;4968031;28;20049;-85
2023/12/04 09:39:24;;;;;;;36.00;20.52;;;;;;;-142.57;100.00;55442.41;4956461;28;20039;-81
2023/12/04 09:41:51;;;;;;;37.80;19.95;;;;;;;-142.57;100.00;55418.16;4954640;28;20071;-84
2023/12/04 09:44:17;;;;;;;37.70;20.55;;;;;;;-142.57;100.00;55418.16;4934998;29;20047;-83
2023/12/04 09:46:44;;;;;;;37.22;21.55;;;;;;;-142.57;100.00;55416.16;4973162;28;20065;-86
2023/12/04 09:49:11;;;;;;;39.80;20.95;;;;;;;-142.57;100.00;55470.69;4940515;28;20057;-84
2023/12/04 09:51:38;;;;;;;37.38;19.70;;;;;;;-142.57;100.00;55458.56;4962540;28;20036;-85
2023/12/04 09:54:07;;;;;;;38.45;19.17;;;;;;;-142.57;100.00;55440.38;4941222;28;20051;-81
2023/12/04 09:56:35;;;;;;;35.08;19.40;;;;;;;-142.57;100.00;55458.56;4957281;28;20109;-84
2023/12/04 09:59:01;;;;;;;38.13;21.33;;;;;;;-142.57;100.00;55476.75;4953419;28;20031;-83
2023/12/04 10:01:30;;;;;;;37.83;19.95;;;;;;;-142.57;100.00;55476.75;4955559;28;20042;-80
2023/12/04 10:04:00;;;;;;;32.15;19.63;;;;;;;-142.57;100.00;55498.97;4937669;29;20043;-83
2023/12/04 10:06:28;;;;;;;36.50;20.42;;;;;;;-142.57;100.00;55454.53;4954459;28;20031;-82
2023/12/04 10:08:58;;;;;;;34.58;19.80;;;;;;;-142.57;100.00;55482.81;4953889;28;20043;-84
2023/12/04 10:11:30;;;;;;;35.05;19.10;;;;;;;-142.57;100.00;55454.53;4948585;28;20043;-82
2023/12/04 10:13:55;;;;;;;36.15;20.90;;;;;;;-142.57;100.00;55462.63;4953066;28;20031;-82
2023/12/04 10:16:35;;;;;;;32.40;19.42;;;;;;;-142.57;100.00;55444.44;4954556;28;20082;-84
2023/12/04 10:19:27;;;;;;;34.60;21.08;;;;;;;-142.57;100.00;55456.56;4955872;28;20679;-81
2023/12/04 10:21:55;;;;;;;42.17;23.65;;;;;;;-142.57;100.00;55381.81;4955056;28;20027;-82
2023/12/04 10:24:39;;;;;;;45.03;21.85;;;;;;;-142.57;100.00;55412.09;4954920;28;20039;-83
2023/12/04 10:27:11;;;;;;;39.95;21.73;;;;;;;-142.57;100.00;55448.47;4954010;28;20786;-83
2023/12/04 10:29:47;;;;;;;34.37;21.03;;;;;;;-142.57;100.00;55377.75;4957454;28;20035;-87
2023/12/04 10:32:12;;;;;;;43.50;21.33;;;;;;;-142.57;100.00;55448.47;4942538;28;20074;-83
2023/12/04 10:34:38;;;;;;;37.13;21.40;;;;;;;-142.57;100.00;55454.53;4953992;28;20055;-84
2023/12/04 10:37:05;;;;;;;39.33;21.75;;;;;;;-142.57;100.00;55430.28;4955072;28;20118;-85
2023/12/04 10:39:31;;;;;;;40.03;23.38;;;;;;;-142.57;100.00;55448.47;4956641;28;20039;-83
2023/12/04 10:42:03;;;;;;;42.25;22.65;;;;;;;-142.57;100.00;55387.84;4963593;28;20038;-83
2023/12/04 10:44:32;;;;;;;28.20;16.27;;;;;;;-142.57;100.00;55446.44;4936630;28;20039;-84
2023/12/04 10:47:00;;;;;;;42.65;24.02;;;;;;;-142.57;100.00;55458.56;4945098;28;20102;-83
2023/12/04 10:49:31;;;;;;;37.78;22.90;;;;;;;-142.57;100.00;55478.78;4968272;28;20039;-83
2023/12/04 10:51:59;;;;;;;50.30;26.08;;;;;;;-142.57;100.00;55494.94;4972170;28;20039;-84